createdAt,value
2023-01-19T00:05:56.571Z,-4.29
2023-01-19T00:12:00.187Z,-4.34
2023-01-19T00:18:03.677Z,-4.39
2023-01-19T00:24:07.124Z,-4.39
2023-01-19T00:30:13.294Z,-4.44
2023-01-19T00:36:16.842Z,-4.49
2023-01-19T00:42:18.805Z,-4.55
2023-01-19T00:48:22.232Z,-4.61
2023-01-19T00:54:27.471Z,-4.66
2023-01-19T01:00:31.257Z,-4.73
2023-01-19T01:06:34.637Z,-4.75
2023-01-19T01:12:26.733Z,-4.72
2023-01-19T01:18:30.146Z,-4.66
2023-01-19T01:24:33.653Z,-4.66
2023-01-19T01:30:37.080Z,-4.56
2023-01-19T01:36:40.536Z,-4.51
2023-01-19T01:42:42.772Z,-4.45
2023-01-19T01:48:46.421Z,-4.29
2023-01-19T01:54:58.670Z,-4.14
2023-01-19T02:01:00.754Z,-4.06
2023-01-19T02:07:02.590Z,-3.95
2023-01-19T02:13:04.924Z,-3.85
2023-01-19T02:19:08.458Z,-3.83
2023-01-19T02:25:11.383Z,-3.81
2023-01-19T02:31:14.788Z,-3.80
2023-01-19T02:37:18.426Z,-3.75
2023-01-19T02:43:30.811Z,-3.72
2023-01-19T02:49:34.448Z,-3.72
2023-01-19T02:55:52.839Z,-3.76
2023-01-19T03:02:02.492Z,-3.79
2023-01-19T03:08:16.484Z,-3.86
2023-01-19T03:14:32.110Z,-3.96
2023-01-19T03:20:35.526Z,-4.02
2023-01-19T03:26:39.272Z,-3.99
2023-01-19T03:32:42.637Z,-3.98
2023-01-19T03:38:46.229Z,-3.96
2023-01-19T03:44:49.614Z,-3.95
2023-01-19T03:50:53.122Z,-3.93
2023-01-19T03:57:02.153Z,-3.93
2023-01-19T04:03:05.770Z,-3.91
2023-01-19T04:09:09.271Z,-3.88
2023-01-19T04:15:12.857Z,-3.85
2023-01-19T04:21:16.672Z,-3.85
2023-01-19T04:27:20.126Z,-3.85
2023-01-19T04:33:23.679Z,-3.88
2023-01-19T04:39:25.583Z,-3.88
2023-01-19T04:45:29.122Z,-3.91
2023-01-19T04:51:32.277Z,-3.95
2023-01-19T04:57:35.881Z,-3.97
2023-01-19T05:03:23.597Z,-4.01
2023-01-19T05:09:13.842Z,-4.05
2023-01-19T05:14:40.016Z,-4.07
2023-01-19T05:20:14.308Z,-4.09
2023-01-19T05:26:03.235Z,-4.11
2023-01-19T05:31:46.679Z,-4.15
2023-01-19T05:37:39.030Z,-4.17
2023-01-19T05:43:35.683Z,-4.20
2023-01-19T05:49:32.185Z,-4.19
2023-01-19T05:55:22.595Z,-4.21
2023-01-19T06:00:45.048Z,-4.22
2023-01-19T06:06:28.314Z,-4.23
2023-01-19T06:12:04.025Z,-4.24
2023-01-19T06:18:01.486Z,-4.26
2023-01-19T06:23:29.777Z,-4.28
2023-01-19T06:29:14.836Z,-4.29
2023-01-19T06:34:47.184Z,-4.30
2023-01-19T06:40:03.303Z,-4.32
2023-01-19T06:45:39.032Z,-4.35
2023-01-19T06:51:34.055Z,-4.41
2023-01-19T06:57:37.594Z,-4.44
2023-01-19T07:03:01.084Z,-4.44
2023-01-19T07:08:55.142Z,-4.45
2023-01-19T07:14:35.780Z,-4.43
2023-01-19T07:20:28.251Z,-4.42
2023-01-19T07:25:59.081Z,-4.41
2023-01-19T07:31:45.373Z,-4.37
2023-01-19T07:37:19.028Z,-4.32
2023-01-19T07:42:40.840Z,-4.26
2023-01-19T07:48:10.195Z,-4.23
2023-01-19T07:53:56.030Z,-4.19
2023-01-19T07:59:11.332Z,-4.12
2023-01-19T08:05:07.497Z,-4.06
2023-01-19T08:10:25.814Z,-3.92
2023-01-19T08:15:41.922Z,-3.77
2023-01-19T08:21:38.674Z,-3.63
2023-01-19T08:27:15.028Z,-3.50
2023-01-19T08:32:51.902Z,-3.38
2023-01-19T08:38:44.055Z,-3.27
2023-01-19T08:44:57.535Z,-3.15
2023-01-19T08:50:50.941Z,-3.00
2023-01-19T08:56:47.044Z,-2.88
2023-01-19T09:02:32.428Z,-2.78
2023-01-19T09:08:26.181Z,-2.64
2023-01-19T09:13:55.594Z,-2.51
2023-01-19T09:19:39.188Z,-2.40
2023-01-19T09:25:37.077Z,-2.26
2023-01-19T09:31:23.875Z,-2.09
2023-01-19T09:37:17.025Z,-1.90
2023-01-19T09:42:57.033Z,-1.71
2023-01-19T09:48:57.182Z,-1.54
2023-01-19T09:54:52.175Z,-1.34
2023-01-19T10:00:29.075Z,-1.15
2023-01-19T10:06:08.914Z,-1.03
2023-01-19T10:11:59.548Z,-0.91
2023-01-19T10:18:31.036Z,-0.74
2023-01-19T10:24:25.215Z,-0.53
2023-01-19T10:30:22.769Z,-0.43
2023-01-19T10:36:18.865Z,-0.30
2023-01-19T10:41:47.882Z,-0.19
2023-01-19T10:47:35.064Z,-0.06
2023-01-19T10:53:16.542Z,0.07
2023-01-19T10:59:03.490Z,0.17
2023-01-19T11:04:27.537Z,0.28
2023-01-19T11:10:00.760Z,0.49
2023-01-19T11:16:04.168Z,0.58
2023-01-19T11:21:57.452Z,0.67
2023-01-19T11:28:00.818Z,0.65
2023-01-19T11:34:06.994Z,0.65
2023-01-19T11:40:14.456Z,0.94
2023-01-19T11:46:20.127Z,1.17
2023-01-19T11:52:21.714Z,1.46
2023-01-19T11:58:28.411Z,1.67
2023-01-19T12:04:23.386Z,1.89
2023-01-19T12:10:45.404Z,2.01
2023-01-19T12:16:51.687Z,2.08
2023-01-19T12:22:55.089Z,2.12
2023-01-19T12:28:58.894Z,2.14
2023-01-19T12:35:03.864Z,2.16
2023-01-19T12:41:19.916Z,2.21
2023-01-19T12:47:38.468Z,2.24
2023-01-19T12:53:41.968Z,2.31
2023-01-19T12:59:45.418Z,2.29
2023-01-19T13:06:07.288Z,2.22
2023-01-19T13:12:13.700Z,2.21
2023-01-19T13:18:32.227Z,2.17
2023-01-19T13:24:50.895Z,2.17
2023-01-19T13:30:57.401Z,2.12
2023-01-19T13:37:06.911Z,2.13
2023-01-19T13:43:22.385Z,2.10
2023-01-19T13:49:31.960Z,2.05
2023-01-19T13:55:35.501Z,1.96
2023-01-19T14:01:39.025Z,1.83
2023-01-19T14:07:42.847Z,1.70
2023-01-19T14:14:06.780Z,1.49
2023-01-19T14:20:10.392Z,1.23
2023-01-19T14:26:29.079Z,1.04
2023-01-19T14:32:44.759Z,0.93
2023-01-19T14:38:48.236Z,0.81
2023-01-19T14:44:52.036Z,0.66
2023-01-19T14:51:02.822Z,0.55
2023-01-19T14:56:47.991Z,0.44
2023-01-19T15:02:51.492Z,0.32
2023-01-19T15:08:55.330Z,0.22
2023-01-19T15:14:58.820Z,0.13
2023-01-19T15:21:02.231Z,0.05
2023-01-19T15:27:05.741Z,-0.05
2023-01-19T15:33:15.182Z,-0.10
2023-01-19T15:39:18.603Z,-0.11
2023-01-19T15:45:12.015Z,-0.12
2023-01-19T15:51:18.071Z,-0.11
2023-01-19T15:57:21.624Z,-0.13
2023-01-19T16:03:14.966Z,-0.14
2023-01-19T16:09:13.937Z,-0.15
2023-01-19T16:15:17.439Z,-0.15
2023-01-19T16:21:21.141Z,-0.16
2023-01-19T16:27:27.506Z,-0.22
2023-01-19T16:33:31.020Z,-0.28
2023-01-19T16:39:34.451Z,-0.33
2023-01-19T16:45:38.091Z,-0.39
2023-01-19T16:51:44.105Z,-0.38
2023-01-19T16:57:39.886Z,-0.35
2023-01-19T17:03:43.381Z,-0.33
2023-01-19T17:09:47.105Z,-0.29
2023-01-19T17:15:51.072Z,-0.26
2023-01-19T17:21:53.515Z,-0.24
2023-01-19T17:27:57.028Z,-0.22
2023-01-19T17:34:03.398Z,-0.18
2023-01-19T17:40:06.893Z,-0.13
2023-01-19T17:46:10.730Z,-0.11
2023-01-19T17:52:15.403Z,-0.08
2023-01-19T17:58:20.364Z,-0.07
2023-01-19T18:04:23.848Z,-0.03
2023-01-19T18:10:26.129Z,-0.01
2023-01-19T18:16:29.561Z,0.02
2023-01-19T18:22:33.075Z,0.06
2023-01-19T18:28:29.018Z,0.09
2023-01-19T18:34:32.611Z,0.12
2023-01-19T18:40:36.006Z,0.14
2023-01-19T18:46:32.434Z,0.16
2023-01-19T18:52:18.572Z,0.18
2023-01-19T18:58:22.044Z,0.20
2023-01-19T19:04:25.415Z,0.24
2023-01-19T19:10:28.987Z,0.27
2023-01-19T19:16:35.159Z,0.28
2023-01-19T19:22:39.580Z,0.31
2023-01-19T19:28:43.102Z,0.34
2023-01-19T19:34:46.453Z,0.37
2023-01-19T19:40:50.269Z,0.39
2023-01-19T19:46:56.605Z,0.41
2023-01-19T19:53:00.170Z,0.45
2023-01-19T19:59:03.533Z,0.45
2023-01-19T20:05:07.263Z,0.46
2023-01-19T20:10:50.842Z,0.48
2023-01-19T20:16:54.253Z,0.50
2023-01-19T20:22:57.721Z,0.51
2023-01-19T20:28:50.114Z,0.51
2023-01-19T20:34:43.469Z,0.52
2023-01-19T20:40:47.087Z,0.51
2023-01-19T20:46:50.613Z,0.52
2023-01-19T20:52:54.041Z,0.53
2023-01-19T20:58:57.392Z,0.54
2023-01-19T21:04:53.290Z,0.54
2023-01-19T21:10:56.721Z,0.54
2023-01-19T21:17:00.161Z,0.54
2023-01-19T21:23:03.553Z,0.55
2023-01-19T21:29:07.429Z,0.57
2023-01-19T21:35:11.197Z,0.58
2023-01-19T21:41:15.026Z,0.62
2023-01-19T21:47:18.401Z,0.61
2023-01-19T21:53:21.821Z,0.60
2023-01-19T21:59:25.278Z,0.61
2023-01-19T22:05:28.639Z,0.61
2023-01-19T22:11:32.056Z,0.62
2023-01-19T22:17:35.408Z,0.63
2023-01-19T22:23:38.839Z,0.62
2023-01-19T22:29:42.207Z,0.62
2023-01-19T22:35:46.076Z,0.63
2023-01-19T22:41:55.268Z,0.63
2023-01-19T22:47:57.455Z,0.65
2023-01-19T22:54:00.962Z,0.67
2023-01-19T23:00:04.434Z,0.68
2023-01-19T23:06:08.035Z,0.69
2023-01-19T23:12:14.202Z,0.67
2023-01-19T23:18:17.570Z,0.67
2023-01-19T23:24:21.235Z,0.66
2023-01-19T23:30:23.476Z,0.67
2023-01-19T23:36:26.531Z,0.70
2023-01-19T23:42:30.006Z,0.69
2023-01-19T23:48:26.105Z,0.67
2023-01-19T23:54:29.930Z,0.66
